createdAt,value
2023-03-17T00:00:57.779Z,0.73
2023-03-17T00:04:06.984Z,0.76
2023-03-17T00:07:18.259Z,0.65
2023-03-17T00:10:27.784Z,0.66
2023-03-17T00:13:38.609Z,0.52
2023-03-17T00:16:51.008Z,0.47
2023-03-17T00:19:59.605Z,0.48
2023-03-17T00:23:15.318Z,0.48
2023-03-17T00:26:24.179Z,0.38
2023-03-17T00:29:34.337Z,0.40
2023-03-17T00:32:45.252Z,0.40
2023-03-17T00:35:55.948Z,0.50
2023-03-17T00:39:17.819Z,0.53
2023-03-17T00:42:25.981Z,0.47
2023-03-17T00:45:36.318Z,0.47
2023-03-17T00:48:46.697Z,0.47
2023-03-17T00:51:55.115Z,0.53
2023-03-17T00:55:03.621Z,0.52
2023-03-17T00:58:26.952Z,0.53
2023-03-17T01:01:36.482Z,0.51
2023-03-17T01:04:52.742Z,0.48
2023-03-17T01:08:04.614Z,0.46
2023-03-17T01:11:18.726Z,0.37
2023-03-17T01:14:29.288Z,0.38
2023-03-17T01:17:39.632Z,0.45
2023-03-17T01:20:49.222Z,0.27
2023-03-17T01:23:57.378Z,0.19
2023-03-17T01:27:06.799Z,0.13
2023-03-17T01:30:27.522Z,0.18
2023-03-17T01:33:37.224Z,0.15
2023-03-17T01:36:46.746Z,0.20
2023-03-17T01:39:55.710Z,0.12
2023-03-17T01:43:22.514Z,0.12
2023-03-17T01:46:33.991Z,0.11
2023-03-17T01:49:43.489Z,0.10
2023-03-17T01:52:51.669Z,0.11
2023-03-17T01:56:00.375Z,0.13
2023-03-17T02:02:53.975Z,0.22
2023-03-17T02:06:05.207Z,0.21
2023-03-17T02:09:14.729Z,0.20
2023-03-17T02:12:28.944Z,0.20
2023-03-17T02:15:40.335Z,0.21
2023-03-17T02:18:48.680Z,0.25
2023-03-17T02:22:00.215Z,0.26
2023-03-17T02:25:08.766Z,0.16
2023-03-17T02:28:24.728Z,0.10
2023-03-17T02:31:33.021Z,0.10
2023-03-17T02:34:41.924Z,0.09
2023-03-17T02:37:51.577Z,0.08
2023-03-17T02:40:59.680Z,0.09
2023-03-17T02:44:08.274Z,0.08
2023-03-17T02:47:17.264Z,0.13
2023-03-17T02:50:30.216Z,0.09
2023-03-17T02:53:39.852Z,0.08
2023-03-17T02:56:48.004Z,0.09
2023-03-17T02:59:56.595Z,0.14
2023-03-17T03:03:04.935Z,0.12
2023-03-17T03:06:13.371Z,0.13
2023-03-17T03:09:24.177Z,0.14
2023-03-17T03:12:32.841Z,0.24
2023-03-17T03:15:43.574Z,0.21
2023-03-17T03:18:51.765Z,0.30
2023-03-17T03:22:00.000Z,0.41
2023-03-17T03:25:10.217Z,0.39
2023-03-17T03:28:18.607Z,0.38
2023-03-17T03:31:27.680Z,0.36
2023-03-17T03:34:39.023Z,0.34
2023-03-17T03:37:49.869Z,0.39
2023-03-17T03:40:59.354Z,0.45
2023-03-17T03:44:07.485Z,0.48
2023-03-17T03:47:15.752Z,0.55
2023-03-17T03:50:24.537Z,0.49
2023-03-17T03:53:32.734Z,0.54
2023-03-17T03:56:42.189Z,0.58
2023-03-17T03:59:50.304Z,0.68
2023-03-17T04:02:58.626Z,0.73
2023-03-17T04:06:07.708Z,0.82
2023-03-17T04:09:16.080Z,0.84
2023-03-17T04:12:25.642Z,0.89
2023-03-17T04:15:33.777Z,0.93
2023-03-17T04:18:42.388Z,0.95
2023-03-17T04:21:53.492Z,0.96
2023-03-17T04:25:02.546Z,1.01
2023-03-17T04:28:12.218Z,1.02
2023-03-17T04:31:21.123Z,1.09
2023-03-17T04:34:29.388Z,1.17
2023-03-17T04:37:38.855Z,1.22
2023-03-17T04:40:47.631Z,1.23
2023-03-17T04:43:57.187Z,1.30
2023-03-17T04:47:05.455Z,1.31
2023-03-17T04:50:14.925Z,1.35
2023-03-17T04:53:23.231Z,1.33
2023-03-17T04:56:32.070Z,1.30
2023-03-17T04:59:41.731Z,1.32
2023-03-17T05:02:49.950Z,1.29
2023-03-17T05:05:58.642Z,1.26
2023-03-17T05:09:06.770Z,1.25
2023-03-17T05:12:15.530Z,1.10
2023-03-17T05:15:25.175Z,1.12
2023-03-17T05:18:33.388Z,1.12
2023-03-17T05:21:42.637Z,1.14
2023-03-17T05:24:50.757Z,1.13
2023-03-17T05:27:59.049Z,1.17
2023-03-17T05:31:10.819Z,1.13
2023-03-17T05:34:19.532Z,1.17
2023-03-17T05:37:27.635Z,1.20
2023-03-17T05:40:36.927Z,1.20
2023-03-17T05:43:45.031Z,1.26
2023-03-17T05:46:55.219Z,1.27
2023-03-17T05:50:04.966Z,1.38
2023-03-17T05:53:13.126Z,1.46
2023-03-17T05:56:21.863Z,1.59
2023-03-17T05:59:29.954Z,1.64
2023-03-17T06:02:40.634Z,1.94
2023-03-17T06:05:48.887Z,2.09
2023-03-17T06:08:56.981Z,2.35
2023-03-17T06:12:06.821Z,2.49
2023-03-17T06:15:16.643Z,2.72
2023-03-17T06:18:26.258Z,2.93
2023-03-17T06:21:34.581Z,3.16
2023-03-17T06:24:42.727Z,3.36
2023-03-17T06:27:54.509Z,3.48
2023-03-17T06:31:05.247Z,3.50
2023-03-17T06:34:16.474Z,3.54
2023-03-17T06:37:25.897Z,3.59
2023-03-17T06:40:34.220Z,3.63
2023-03-17T06:43:43.484Z,3.64
2023-03-17T06:46:52.761Z,3.61
2023-03-17T06:50:02.368Z,3.70
2023-03-17T06:53:11.344Z,3.77
2023-03-17T06:56:29.530Z,3.83
2023-03-17T06:59:39.018Z,4.06
2023-03-17T07:02:47.419Z,4.35
2023-03-17T07:05:57.026Z,4.68
2023-03-17T07:09:05.760Z,5.16
2023-03-17T07:12:14.287Z,5.93
2023-03-17T07:15:22.536Z,6.28
2023-03-17T07:18:32.021Z,6.52
2023-03-17T07:21:41.527Z,6.96
2023-03-17T07:24:49.971Z,7.45
2023-03-17T07:27:58.577Z,7.70
2023-03-17T07:31:09.531Z,7.89
2023-03-17T07:34:18.084Z,8.23
2023-03-17T07:37:27.590Z,8.44
2023-03-17T07:40:36.716Z,8.45
2023-03-17T07:43:44.941Z,7.87
2023-03-17T07:46:53.302Z,8.13
2023-03-17T07:50:01.440Z,8.56
2023-03-17T07:53:11.400Z,8.70
2023-03-17T07:56:19.763Z,8.50
2023-03-17T07:59:28.925Z,8.66
2023-03-17T08:02:38.357Z,9.02
2023-03-17T08:05:47.150Z,9.19
2023-03-17T08:08:56.960Z,9.04
2023-03-17T08:12:09.535Z,9.21
2023-03-17T08:15:18.144Z,9.25
2023-03-17T08:18:26.471Z,9.53
2023-03-17T08:21:35.091Z,9.56
2023-03-17T08:24:44.852Z,9.54
2023-03-17T08:27:54.021Z,9.81
2023-03-17T08:31:12.459Z,9.54
2023-03-17T08:34:20.867Z,9.75
2023-03-17T08:37:29.296Z,9.95
2023-03-17T08:40:41.303Z,10.12
2023-03-17T08:43:50.385Z,10.31
2023-03-17T08:46:58.562Z,9.83
2023-03-17T08:50:13.450Z,10.04
2023-03-17T08:53:21.984Z,10.12
2023-03-17T08:56:31.805Z,10.09
2023-03-17T08:59:40.498Z,10.42
2023-03-17T09:02:49.722Z,10.59
2023-03-17T09:05:59.734Z,10.92
2023-03-17T09:09:07.954Z,11.33
2023-03-17T09:12:17.737Z,11.81
2023-03-17T09:15:26.025Z,11.60
2023-03-17T09:18:34.780Z,11.96
2023-03-17T09:21:43.251Z,12.11
2023-03-17T09:24:51.723Z,12.02
2023-03-17T09:28:01.666Z,12.46
2023-03-17T09:31:11.435Z,12.70
2023-03-17T09:34:21.002Z,12.76
2023-03-17T09:37:29.281Z,12.94
2023-03-17T09:40:46.218Z,13.18
2023-03-17T09:44:07.850Z,13.18
2023-03-17T09:47:54.138Z,13.34
2023-03-17T09:51:09.044Z,13.50
2023-03-17T09:54:27.513Z,13.73
2023-03-17T09:57:39.402Z,13.66
2023-03-17T10:00:49.083Z,13.86
2023-03-17T10:03:57.830Z,14.20
2023-03-17T10:07:07.693Z,14.60
2023-03-17T10:10:21.293Z,14.59
2023-03-17T10:13:48.380Z,14.64
2023-03-17T10:17:06.931Z,14.76
2023-03-17T10:20:24.589Z,14.85
2023-03-17T10:23:36.741Z,14.84
2023-03-17T10:26:51.546Z,14.67
2023-03-17T10:30:00.059Z,14.71
2023-03-17T10:33:09.730Z,14.87
2023-03-17T10:36:34.784Z,14.86
2023-03-17T10:39:47.917Z,14.94
2023-03-17T10:43:03.839Z,14.93
2023-03-17T10:46:22.167Z,14.83
2023-03-17T10:49:37.106Z,14.83
2023-03-17T10:52:49.800Z,14.86
2023-03-17T10:56:07.580Z,14.86
2023-03-17T10:59:21.263Z,15.21
2023-03-17T11:02:32.023Z,15.09
2023-03-17T11:05:41.620Z,15.42
2023-03-17T11:08:54.900Z,15.48
2023-03-17T11:12:08.847Z,15.61
2023-03-17T11:15:20.280Z,15.85
2023-03-17T11:18:37.416Z,15.85
2023-03-17T11:22:01.492Z,16.04
2023-03-17T11:25:16.355Z,16.00
2023-03-17T11:28:35.018Z,16.17
2023-03-17T11:31:58.448Z,16.49
2023-03-17T11:35:29.927Z,16.57
2023-03-17T11:38:52.979Z,16.89
2023-03-17T11:42:17.666Z,16.93
2023-03-17T11:45:31.426Z,17.05
2023-03-17T11:48:52.963Z,17.04
2023-03-17T11:52:12.189Z,17.23
2023-03-17T11:55:32.795Z,16.91
2023-03-17T11:58:46.062Z,16.75
2023-03-17T12:02:04.728Z,16.60
2023-03-17T12:05:18.927Z,16.58
2023-03-17T12:08:38.676Z,16.59
2023-03-17T12:11:51.968Z,16.43
2023-03-17T12:15:05.317Z,16.47
2023-03-17T12:18:21.420Z,16.35
2023-03-17T12:21:38.551Z,16.64
2023-03-17T12:24:56.479Z,16.80
2023-03-17T12:28:15.897Z,16.74
2023-03-17T12:31:32.303Z,16.98
2023-03-17T12:34:50.664Z,17.05
2023-03-17T12:38:02.920Z,16.95
2023-03-17T12:42:01.928Z,17.14
2023-03-17T12:45:47.282Z,17.36
2023-03-17T12:49:38.885Z,17.69
2023-03-17T12:53:26.559Z,17.76
2023-03-17T12:56:45.058Z,17.81
2023-03-17T13:00:06.049Z,17.68
2023-03-17T13:03:26.251Z,17.34
2023-03-17T13:06:56.121Z,17.52
2023-03-17T13:10:40.508Z,17.39
2023-03-17T13:14:15.679Z,17.38
2023-03-17T13:17:35.176Z,17.30
2023-03-17T13:20:54.153Z,17.29
2023-03-17T13:24:51.815Z,17.51
2023-03-17T13:28:42.782Z,17.40
2023-03-17T13:31:51.336Z,17.48
2023-03-17T13:35:21.039Z,17.74
2023-03-17T13:39:18.414Z,17.89
2023-03-17T13:43:00.272Z,17.98
2023-03-17T13:46:35.186Z,17.92
2023-03-17T13:49:52.263Z,17.56
2023-03-17T13:53:10.558Z,17.75
2023-03-17T13:56:30.849Z,17.96
2023-03-17T14:00:00.982Z,18.14
2023-03-17T14:03:17.611Z,17.88
2023-03-17T14:06:31.337Z,17.95
2023-03-17T14:09:42.591Z,17.96
2023-03-17T14:13:02.083Z,18.15
2023-03-17T14:16:22.256Z,18.05
2023-03-17T14:19:32.248Z,18.00
2023-03-17T14:22:45.497Z,17.96
2023-03-17T14:25:57.172Z,18.02
2023-03-17T14:29:07.507Z,17.79
2023-03-17T14:32:18.695Z,17.62
2023-03-17T14:35:32.386Z,17.44
2023-03-17T14:38:49.262Z,17.35
2023-03-17T14:42:03.699Z,17.05
2023-03-17T14:45:29.840Z,16.90
2023-03-17T14:48:42.959Z,16.78
2023-03-17T14:51:56.171Z,16.70
2023-03-17T14:55:06.162Z,16.58
2023-03-17T14:58:24.508Z,16.51
2023-03-17T15:01:39.860Z,16.32
2023-03-17T15:04:56.762Z,16.41
2023-03-17T15:08:40.986Z,16.40
2023-03-17T15:11:51.019Z,16.45
2023-03-17T15:15:04.605Z,16.50
2023-03-17T15:18:16.796Z,16.50
2023-03-17T15:21:33.869Z,16.26
2023-03-17T15:24:44.057Z,16.34
2023-03-17T15:27:53.592Z,16.39
2023-03-17T15:31:14.510Z,16.29
2023-03-17T15:34:24.126Z,16.47
2023-03-17T15:37:35.727Z,16.48
2023-03-17T15:40:44.207Z,16.33
2023-03-17T15:43:52.349Z,16.29
2023-03-17T15:47:00.827Z,16.23
2023-03-17T15:50:18.647Z,16.09
2023-03-17T15:53:27.291Z,15.98
2023-03-17T15:56:35.591Z,15.82
2023-03-17T15:59:44.204Z,15.75
2023-03-17T16:02:58.527Z,15.64
2023-03-17T16:06:17.608Z,15.59
2023-03-17T16:09:26.077Z,15.49
2023-03-17T16:12:34.272Z,15.34
2023-03-17T16:15:48.249Z,15.25
2023-03-17T16:18:57.878Z,15.20
2023-03-17T16:22:29.665Z,15.06
2023-03-17T16:25:38.502Z,14.95
2023-03-17T16:28:49.473Z,14.76
2023-03-17T16:31:57.766Z,14.61
2023-03-17T16:35:15.589Z,14.33
2023-03-17T16:38:28.983Z,14.12
2023-03-17T16:41:37.699Z,13.99
2023-03-17T16:44:46.444Z,13.79
2023-03-17T16:47:55.387Z,13.53
2023-03-17T16:51:04.302Z,13.38
2023-03-17T16:54:14.256Z,13.16
2023-03-17T16:57:22.749Z,12.89
2023-03-17T17:00:33.357Z,12.74
2023-03-17T17:03:42.458Z,12.49
2023-03-17T17:06:51.010Z,12.37
2023-03-17T17:10:01.275Z,12.14
2023-03-17T17:13:11.920Z,11.88
2023-03-17T17:16:27.652Z,11.68
2023-03-17T17:19:36.229Z,11.48
2023-03-17T17:22:44.909Z,11.23
2023-03-17T17:25:56.088Z,11.05
2023-03-17T17:29:04.413Z,10.83
2023-03-17T17:32:13.699Z,10.61
2023-03-17T17:35:22.357Z,10.49
2023-03-17T17:38:31.240Z,10.42
2023-03-17T17:41:40.811Z,10.20
2023-03-17T17:44:49.252Z,10.03
2023-03-17T17:47:59.617Z,9.93
2023-03-17T17:51:07.910Z,9.81
2023-03-17T17:54:16.399Z,9.73
2023-03-17T17:57:26.138Z,9.79
2023-03-17T18:00:34.471Z,9.69
2023-03-17T18:03:43.148Z,9.64
2023-03-17T18:06:51.575Z,9.56
2023-03-17T18:09:59.939Z,9.48
2023-03-17T18:13:09.596Z,9.46
2023-03-17T18:16:21.008Z,9.47
2023-03-17T18:19:29.425Z,9.37
2023-03-17T18:22:38.070Z,9.34
2023-03-17T18:25:46.242Z,9.24
2023-03-17T18:28:56.483Z,9.09
2023-03-17T18:32:06.761Z,9.01
2023-03-17T18:35:21.841Z,9.02
2023-03-17T18:38:30.046Z,8.83
2023-03-17T18:41:39.195Z,8.67
2023-03-17T18:44:48.924Z,8.58
2023-03-17T18:47:57.184Z,8.57
2023-03-17T18:51:05.663Z,8.57
2023-03-17T18:54:13.881Z,8.47
2023-03-17T18:57:22.276Z,8.37
2023-03-17T19:00:31.925Z,8.34
2023-03-17T19:03:40.725Z,8.29
2023-03-17T19:06:48.884Z,8.22
2023-03-17T19:09:57.194Z,8.27
2023-03-17T19:13:06.194Z,8.43
2023-03-17T19:16:16.684Z,8.37
2023-03-17T19:19:24.957Z,8.20
2023-03-17T19:22:33.955Z,7.99
2023-03-17T19:25:42.200Z,7.94
2023-03-17T19:28:50.716Z,7.70
2023-03-17T19:32:00.542Z,7.74
2023-03-17T19:35:09.594Z,7.39
2023-03-17T19:38:17.860Z,7.14
2023-03-17T19:41:26.588Z,6.87
2023-03-17T19:44:34.853Z,6.65
2023-03-17T19:47:44.565Z,6.58
2023-03-17T19:50:53.324Z,6.90
2023-03-17T19:54:01.737Z,6.67
2023-03-17T19:57:09.984Z,6.56
2023-03-17T20:00:20.875Z,6.51
2023-03-17T20:03:30.508Z,6.43
2023-03-17T20:06:38.872Z,6.35
2023-03-17T20:09:48.507Z,6.29
2023-03-17T20:12:56.749Z,6.21
2023-03-17T20:16:07.217Z,6.18
2023-03-17T20:19:17.480Z,6.11
2023-03-17T20:22:25.915Z,6.15
2023-03-17T20:25:34.131Z,6.10
2023-03-17T20:28:42.548Z,6.05
2023-03-17T20:31:50.693Z,6.02
2023-03-17T20:35:00.867Z,5.79
2023-03-17T20:38:09.954Z,5.86
2023-03-17T20:41:21.003Z,5.68
2023-03-17T20:44:29.262Z,5.68
2023-03-17T20:47:40.985Z,5.54
2023-03-17T20:50:51.720Z,5.45
2023-03-17T20:54:01.672Z,5.40
2023-03-17T20:57:13.976Z,5.59
2023-03-17T21:00:23.154Z,5.39
2023-03-17T21:03:32.369Z,5.50
2023-03-17T21:06:42.853Z,5.37
2023-03-17T21:09:51.895Z,5.57
2023-03-17T21:13:00.102Z,5.44
2023-03-17T21:16:08.522Z,5.08
2023-03-17T21:19:17.334Z,4.92
2023-03-17T21:22:26.931Z,4.81
2023-03-17T21:25:36.082Z,4.81
2023-03-17T21:28:45.357Z,4.73
2023-03-17T21:31:54.275Z,4.86
2023-03-17T21:35:02.634Z,4.72
2023-03-17T21:38:12.385Z,4.64
2023-03-17T21:41:32.137Z,4.76
2023-03-17T21:44:42.131Z,4.81
2023-03-17T21:47:50.977Z,4.89
2023-03-17T21:50:59.458Z,4.76
2023-03-17T21:54:09.078Z,4.59
2023-03-17T21:57:17.891Z,4.53
2023-03-17T22:00:29.001Z,4.46
2023-03-17T22:03:44.573Z,4.51
2023-03-17T22:06:53.880Z,4.44
2023-03-17T22:10:06.255Z,4.31
2023-03-17T22:13:14.456Z,4.31
2023-03-17T22:16:22.771Z,4.32
2023-03-17T22:19:31.210Z,4.30
2023-03-17T22:22:39.503Z,4.33
2023-03-17T22:25:49.167Z,4.45
2023-03-17T22:28:58.404Z,4.48
2023-03-17T22:32:07.522Z,4.43
2023-03-17T22:35:19.185Z,4.36
2023-03-17T22:38:27.696Z,4.10
2023-03-17T22:41:38.481Z,4.20
2023-03-17T22:44:46.647Z,4.11
2023-03-17T22:47:55.466Z,4.33
2023-03-17T22:51:05.117Z,4.25
2023-03-17T22:54:13.474Z,4.13
2023-03-17T22:57:23.137Z,4.03
2023-03-17T23:00:32.202Z,3.99
2023-03-17T23:03:41.927Z,3.93
2023-03-17T23:06:50.449Z,3.95
2023-03-17T23:09:58.635Z,3.98
2023-03-17T23:13:08.504Z,4.07
2023-03-17T23:16:17.405Z,4.07
2023-03-17T23:19:25.768Z,4.04
2023-03-17T23:22:34.938Z,4.20
2023-03-17T23:25:43.626Z,4.34
2023-03-17T23:28:53.778Z,4.35
2023-03-17T23:32:02.196Z,4.30
2023-03-17T23:35:11.544Z,4.25
2023-03-17T23:38:21.518Z,4.19
2023-03-17T23:41:29.966Z,4.10
2023-03-17T23:44:39.977Z,4.01
2023-03-17T23:47:52.865Z,4.06
2023-03-17T23:51:01.114Z,3.97
2023-03-17T23:54:09.400Z,3.94
2023-03-17T23:57:17.786Z,3.88
